Weather History for EGVA - November, 2012

Change the Weather History Date:

Wednesday, November 7, 2012

  Actual Average Record
Temperature  
Mean Temperature 41 °F -  
Max Temperature 50 °F 53 °F 60 °F (2015)
Min Temperature 32 °F 40 °F 32 °F (2012)
Degree Days  
Heating Degree Days 24    
Moisture  
Dew Point 36 °F    
Average Humidity 93    
Maximum Humidity 100    
Minimum Humidity 71    
Precipitation  
Precipitation 0.00 in - - ()
Sea Level Pressure  
Sea Level Pressure 30.25 in    
Wind  
Wind Speed 6 mph ()    
Max Wind Speed 21 mph    
Max Gust Speed 26 mph    
Visibility 3.0 miles    
Events Fog    
Averages and records for this station are not official NWS values.
T = Trace of Precipitation, MM = Missing Value Source: Averaged Metar Reports

Daily Weather History Graph

Daily Weather History Graph

Search for Another Location

Airport or City:

Trip Planner

Search our weather history database for the weather conditions in past years. The results will help you decide how hot, cold, wet, or windy it might be!

Date:

Astronomy

Nov. 07, 2012 Rise Set
Actual Time 7:12 AM GMT 4:28 PM GMT
Civil Twilight 6:36 AM GMT 5:04 PM GMT
Nautical Twilight 5:56 AM GMT 5:44 PM GMT
Astronomical Twilight 5:16 AM GMT 6:23 PM GMT
Moon No Moon Rise 1:15 PM GMT (11/7)
Length of Visible Light 10h 28m
Length of Day
9h 16m
Last Quarter, 45% of the Moon is Illuminated
Nov 7
Last Quarter
Nov 13
New
Nov 20
First Quarter
Nov 28
Full
Dec 6
Last Quarter

Hourly Weather History & Observations

Time (GMT) Temp. Windchill Dew Point Humidity Pressure Visibility Wind Dir Wind Speed Gust Speed Precip Events Conditions
12:58 AM 40.6 °F 36.0 °F 39.6 °F 96% 30.25 in 6.2 mi SW 6.9 mph - N/A   Clear
1:58 AM 39.2 °F 35.0 °F 37.4 °F 93% 30.25 in 6.2 mi West 5.8 mph - N/A   Clear
2:58 AM 36.3 °F 32.5 °F 35.6 °F 97% 30.25 in 6.2 mi WSW 4.6 mph - N/A   Clear
3:58 AM 37.4 °F 32.8 °F 37.4 °F 100% 30.25 in 6.2 mi SW 5.8 mph - N/A   Clear
4:27 AM 37.4 °F 34.9 °F 37.4 °F 100% 30.24 in 5.0 mi WSW 3.5 mph - N/A   Clear
4:35 AM 35.6 °F - 35.6 °F 100% 30.24 in - West 2.3 mph - N/A   Clear
4:36 AM 35.6 °F - 35.6 °F 100% 30.24 in 2.5 mi West 2.3 mph - N/A   Clear
4:40 AM 35.6 °F 31.7 °F 35.6 °F 100% 30.24 in 1.0 mi SW 4.6 mph - N/A   Clear
4:41 AM 35.6 °F 31.7 °F 35.6 °F 100% 30.24 in 0.7 mi SW 4.6 mph - N/A   Clear
4:45 AM 35.6 °F 30.7 °F 33.8 °F 93% 30.24 in 0.7 mi SW 5.8 mph - N/A   Clear
4:46 AM 35.6 °F 29.9 °F 33.8 °F 93% 30.23 in 1.0 mi SW 6.9 mph - N/A   Clear
4:48 AM 35.6 °F 29.2 °F 33.8 °F 93% 30.24 in 1.2 mi SW 8.1 mph - N/A   Clear
4:49 AM 33.8 °F 26.4 °F 33.8 °F 100% 30.24 in 1.7 mi SW 9.2 mph - N/A   Clear
4:50 AM 33.8 °F 27.0 °F 33.8 °F 100% 30.24 in 2.5 mi SW 8.1 mph - N/A   Clear
4:51 AM 33.8 °F 27.7 °F 33.8 °F 100% 30.24 in 3.7 mi WSW 6.9 mph - N/A   Clear
4:52 AM 33.8 °F 28.6 °F 32.0 °F 93% 30.24 in 5.0 mi West 5.8 mph - N/A   Clear
4:58 AM 35.6 °F 30.7 °F 33.8 °F 93% 30.26 in 5.6 mi SW 5.8 mph - N/A   Clear
5:15 AM 33.8 °F 29.6 °F 32.0 °F 93% 30.24 in 1.2 mi West 4.6 mph - N/A   Clear
5:16 AM 33.8 °F 29.6 °F 32.0 °F 93% 30.24 in 1.0 mi West 4.6 mph - N/A   Clear
5:18 AM 33.8 °F 30.8 °F 32.0 °F 93% 30.24 in 0.7 mi West 3.5 mph - N/A   Clear
5:26 AM 32.0 °F 27.5 °F 32.0 °F 100% 30.24 in 0.7 mi WSW 4.6 mph - N/A   Clear
5:27 AM 32.0 °F 27.5 °F 32.0 °F 100% 30.24 in 0.5 mi WSW 4.6 mph - N/A Fog Fog
5:34 AM 32.0 °F 26.4 °F 32.0 °F 100% 30.24 in 1.0 mi WSW 5.8 mph - N/A   Clear
5:35 AM 33.8 °F 28.6 °F 32.0 °F 93% 30.24 in 1.0 mi WSW 5.8 mph - N/A   Clear
5:36 AM 33.8 °F 28.6 °F 32.0 °F 93% 30.24 in 1.2 mi West 5.8 mph - N/A   Clear
5:39 AM 33.8 °F 28.6 °F 32.0 °F 93% 30.24 in 1.5 mi WSW 5.8 mph - N/A   Clear
5:51 AM 35.6 °F 31.7 °F 35.6 °F 100% 30.24 in 2.5 mi West 4.6 mph - N/A   Clear
5:57 AM 33.8 °F 27.7 °F 33.8 °F 100% 30.24 in - West 6.9 mph - N/A   Clear
5:58 AM 33.8 °F 27.7 °F 33.8 °F 100% 30.26 in - West 6.9 mph - N/A   Clear
5:59 AM 33.8 °F 27.7 °F 33.8 °F 100% 30.24 in - West 6.9 mph - N/A   Clear
6:01 AM 33.8 °F 27.0 °F 32.0 °F 93% 30.24 in - WSW 8.1 mph - N/A   Clear
6:02 AM 33.8 °F 27.7 °F 32.0 °F 93% 30.24 in 3.7 mi WSW 6.9 mph - N/A   Clear
6:07 AM 33.8 °F 27.7 °F 32.0 °F 93% 30.24 in 3.7 mi WSW 6.9 mph - N/A   Partly Cloudy
6:11 AM 33.8 °F 28.6 °F 32.0 °F 93% 30.25 in - West 5.8 mph - N/A   Scattered Clouds
6:44 AM 35.6 °F 30.7 °F 35.6 °F 100% 30.25 in 0.5 mi West 5.8 mph - N/A Fog Fog
6:47 AM 35.6 °F 31.7 °F 35.6 °F 100% 30.25 in 0.7 mi WSW 4.6 mph - N/A   Mist
6:55 AM 35.6 °F 32.8 °F 35.6 °F 100% 30.25 in 0.7 mi WSW 3.5 mph - N/A   Mist
6:58 AM 35.6 °F 32.8 °F 35.1 °F 98% 30.27 in 0.7 mi WSW 3.5 mph - N/A   Mist
6:59 AM 35.6 °F 31.7 °F 35.6 °F 100% 30.25 in 0.7 mi WSW 4.6 mph - N/A   Mist
7:08 AM 35.6 °F 32.8 °F 33.8 °F 93% 30.25 in 1.2 mi WSW 3.5 mph - N/A   Clear
7:09 AM 33.8 °F 29.6 °F 33.8 °F 100% 30.25 in 1.5 mi WSW 4.6 mph - N/A   Clear
7:11 AM 33.8 °F 30.8 °F 33.8 °F 100% 30.25 in 1.5 mi West 3.5 mph - N/A   Clear
7:12 AM 35.6 °F 32.8 °F 33.8 °F 93% 30.25 in 1.2 mi West 3.5 mph - N/A   Clear
7:13 AM 35.6 °F 31.7 °F 33.8 °F 93% 30.25 in 1.0 mi WSW 4.6 mph - N/A   Clear
7:16 AM 35.6 °F 31.7 °F 33.8 °F 93% 30.26 in 0.7 mi West 4.6 mph - N/A   Clear
7:17 AM 35.6 °F 32.8 °F 33.8 °F 93% 30.26 in 0.5 mi West 3.5 mph - N/A Fog Fog
7:18 AM 35.6 °F 32.8 °F 35.6 °F 100% 30.26 in 0.5 mi West 3.5 mph - N/A Fog Fog
7:20 AM 35.6 °F - 35.6 °F 100% 30.26 in 0.5 mi West 2.3 mph - N/A Fog Fog
7:22 AM 35.6 °F - 35.6 °F 100% 30.26 in 0.2 mi WSW 2.3 mph - N/A Fog Fog
7:23 AM 35.6 °F - 35.6 °F 100% 30.26 in 0.2 mi WSW 2.3 mph - N/A Fog Fog
7:33 AM 35.6 °F 32.8 °F 35.6 °F 100% 30.26 in 0.2 mi West 3.5 mph - N/A Fog Fog
7:34 AM 35.6 °F 32.8 °F 33.8 °F 93% 30.26 in 0.5 mi West 3.5 mph - N/A Fog Fog
7:49 AM 35.6 °F 32.8 °F 35.6 °F 100% 30.26 in - WSW 3.5 mph - N/A Fog Fog
7:54 AM 35.6 °F - 35.6 °F 100% 30.26 in - SW 2.3 mph - N/A Fog Fog
7:58 AM 35.6 °F - 35.6 °F 100% 30.28 in - SW 2.3 mph - N/A Fog Fog
8:20 AM 35.6 °F 31.7 °F 35.6 °F 100% 30.26 in 2.5 mi SW 4.6 mph - N/A   Mostly Cloudy
8:28 AM 37.4 °F 33.8 °F 35.6 °F 93% 30.27 in 3.7 mi SW 4.6 mph - N/A   Mostly Cloudy
8:34 AM 37.4 °F 32.8 °F 37.4 °F 100% 30.26 in 5.0 mi WSW 5.8 mph - N/A   Scattered Clouds
9:58 AM 44.6 °F 39.7 °F 44.6 °F 100% 30.30 in 6.2 mi West 9.2 mph - N/A   Clear
10:58 AM 48.2 °F - 42.1 °F 79% 30.30 in 6.2 mi West 11.5 mph - N/A   Scattered Clouds
11:59 AM 49.1 °F - 40.8 °F 73% 30.28 in 6.2 mi West 10.4 mph - N/A   Partly Cloudy
12:38 PM 50.0 °F - 41.0 °F 71% 30.25 in 6.2 mi WSW 16.1 mph - N/A   Mostly Cloudy
12:58 PM 50.0 °F - 41.0 °F 71% 30.27 in 6.2 mi WSW 19.6 mph 24.2 mph N/A   Mostly Cloudy
1:12 PM 50.0 °F - 41.0 °F 71% 30.25 in 6.2 mi West 20.7 mph 26.5 mph N/A   Scattered Clouds
1:51 PM 48.2 °F - 41.0 °F 76% 30.24 in 6.2 mi West 15.0 mph 21.9 mph N/A   Mostly Cloudy
1:58 PM 49.1 °F - 40.8 °F 73% 30.26 in 6.2 mi WSW 18.4 mph - N/A   Overcast
2:28 PM 48.2 °F - 41.0 °F 76% 30.23 in 6.2 mi WSW 18.4 mph - N/A   Overcast
3:14 PM 48.2 °F - 41.0 °F 76% 30.22 in 6.2 mi WSW 18.4 mph - N/A   Overcast
3:51 PM 48.2 °F - 41.0 °F 76% 30.22 in 6.2 mi WSW 11.5 mph - N/A   Overcast
3:54 PM 48.2 °F - 41.0 °F 76% 30.22 in 6.2 mi WSW 12.7 mph - N/A   Overcast
3:58 PM 48.2 °F - 41.4 °F 77% 30.24 in 6.2 mi WSW 12.7 mph - N/A   Overcast
4:04 PM 48.2 °F - 41.0 °F 76% 30.22 in 6.2 mi WSW 11.5 mph - N/A   Overcast
4:26 PM 48.2 °F - 41.0 °F 76% 30.22 in 6.2 mi WSW 10.4 mph - N/A   Overcast